Time;durP1;ratioP1;P1;durP2;ratioP2;P2;SDS_P1;SDS_P2;PMS_P1;PMS_P2;Temp;Humidity;BMP_temperature;BMP_pressure;BME280_temperature;BME280_humidity;BME280_pressure;Samples;Min_cycle;Max_cycle;Signal;HPM_P1;HPM_P2
2021/03/24 00:01:07;;;;;;;21.40;10.25;;;6.40;99.90;;;;;;4999408;28;20853;-65
2021/03/24 00:03:32;;;;;;;17.75;9.60;;;6.40;99.90;;;;;;5000320;28;20056;-65
2021/03/24 00:05:58;;;;;;;18.95;9.32;;;6.40;99.90;;;;;;4999317;28;20502;-65
2021/03/24 00:08:24;;;;;;;22.90;9.93;;;6.40;99.90;;;;;;5000011;28;20069;-65
2021/03/24 00:10:51;;;;;;;21.08;10.10;;;6.40;99.90;;;;;;5000038;28;20045;-65
2021/03/24 00:13:17;;;;;;;20.15;10.25;;;6.40;99.90;;;;;;4982240;28;20706;-65
2021/03/24 00:15:42;;;;;;;22.35;10.27;;;6.40;99.90;;;;;;4999976;28;20080;-65
2021/03/24 00:18:11;;;;;;;19.83;9.23;;;6.40;99.90;;;;;;5000434;28;20057;-65
2021/03/24 00:20:39;;;;;;;23.20;9.77;;;6.30;99.90;;;;;;4995488;28;20126;-65
2021/03/24 00:23:06;;;;;;;22.92;9.95;;;6.30;99.90;;;;;;5000253;28;20034;-65
2021/03/24 00:25:32;;;;;;;19.40;9.55;;;6.30;99.90;;;;;;4999646;28;20640;-65
2021/03/24 00:27:58;;;;;;;18.55;9.50;;;6.30;99.90;;;;;;4999418;28;20057;-65
2021/03/24 00:30:27;;;;;;;24.08;10.25;;;6.40;99.90;;;;;;4999830;28;20042;-65
2021/03/24 00:32:53;;;;;;;18.50;9.77;;;6.40;99.90;;;;;;4994633;28;20560;-65
2021/03/24 00:35:19;;;;;;;18.73;9.52;;;6.40;99.90;;;;;;4999637;28;20041;-65
2021/03/24 00:37:45;;;;;;;21.80;10.30;;;6.40;99.90;;;;;;4999119;28;20037;-65
2021/03/24 00:40:39;;;;;;;15.85;8.93;;;6.50;99.90;;;;;;4999406;28;20069;-65
2021/03/24 00:43:06;;;;;;;19.67;9.57;;;6.50;99.90;;;;;;4996290;28;20068;-65
2021/03/24 00:45:33;;;;;;;18.42;10.07;;;6.50;99.90;;;;;;4995516;28;20445;-65
2021/03/24 00:48:00;;;;;;;22.60;11.27;;;6.50;99.90;;;;;;4981422;28;20034;-65
2021/03/24 00:50:29;;;;;;;16.98;9.65;;;6.50;99.90;;;;;;4998775;28;20080;-65
2021/03/24 00:52:54;;;;;;;17.83;9.38;;;6.50;99.90;;;;;;4989411;28;20120;-65
2021/03/24 00:55:21;;;;;;;18.45;9.55;;;6.50;99.90;;;;;;4998706;28;20040;-65
2021/03/24 00:57:47;;;;;;;21.60;9.85;;;6.50;99.90;;;;;;4998725;28;20041;-65
2021/03/24 01:00:29;;;;;;;20.50;10.07;;;6.40;99.90;;;;;;4998948;28;20038;-65
2021/03/24 01:02:56;;;;;;;17.25;9.07;;;6.40;99.90;;;;;;4996526;28;20884;-64
2021/03/24 01:05:23;;;;;;;19.20;9.57;;;6.40;99.90;;;;;;4979453;28;20456;-64
2021/03/24 01:07:49;;;;;;;18.83;9.85;;;6.40;99.90;;;;;;4997911;28;20037;-64
2021/03/24 01:10:26;;;;;;;16.55;9.25;;;6.40;99.90;;;;;;4980527;28;20112;-64
2021/03/24 01:12:52;;;;;;;20.60;9.50;;;6.40;99.90;;;;;;4978018;28;20688;-64
2021/03/24 01:15:19;;;;;;;21.65;10.18;;;6.40;99.90;;;;;;4997997;28;20508;-64
2021/03/24 01:17:44;;;;;;;23.45;9.88;;;6.40;99.90;;;;;;4998604;28;20034;-64
2021/03/24 01:20:11;;;;;;;17.13;9.60;;;6.40;99.90;;;;;;4997777;28;20051;-64
2021/03/24 01:22:37;;;;;;;20.08;9.93;;;6.40;99.90;;;;;;4998738;28;20080;-64
2021/03/24 01:25:03;;;;;;;18.75;9.15;;;6.40;99.90;;;;;;4997555;28;20635;-64
2021/03/24 01:27:29;;;;;;;16.45;8.90;;;6.40;99.90;;;;;;4998112;28;20912;-64
2021/03/24 01:29:55;;;;;;;20.25;10.20;;;6.40;99.90;;;;;;4998156;28;20100;-64
2021/03/24 01:32:20;;;;;;;19.92;10.18;;;6.40;99.90;;;;;;4997686;28;20061;-64
2021/03/24 01:34:46;;;;;;;20.45;10.35;;;6.40;99.90;;;;;;4979723;28;20029;-63
2021/03/24 01:37:12;;;;;;;21.83;10.85;;;6.30;99.90;;;;;;4996926;28;20156;-64
2021/03/24 01:39:37;;;;;;;21.50;10.85;;;6.40;99.90;;;;;;4997457;28;20026;-64
2021/03/24 01:42:04;;;;;;;24.77;11.30;;;6.30;99.90;;;;;;4996793;28;20080;-64
2021/03/24 01:44:29;;;;;;;25.52;11.48;;;6.40;99.90;;;;;;4978854;28;20087;-64
2021/03/24 01:46:55;;;;;;;17.42;9.88;;;6.40;99.90;;;;;;4979331;28;20041;-64
2021/03/24 01:49:28;;;;;;;22.70;10.60;;;6.40;99.90;;;;;;4997526;28;20034;-64
2021/03/24 01:52:00;;;;;;;19.45;10.75;;;6.30;99.90;;;;;;4997728;28;20050;-63
2021/03/24 01:54:35;;;;;;;21.00;10.68;;;6.30;99.90;;;;;;4993251;28;20773;-64
2021/03/24 01:57:04;;;;;;;19.77;10.90;;;6.30;99.90;;;;;;4997622;28;20041;-63
2021/03/24 01:59:30;;;;;;;21.67;11.43;;;6.30;99.90;;;;;;4997131;28;20034;-64
2021/03/24 02:01:57;;;;;;;22.08;12.18;;;6.30;99.90;;;;;;4997845;28;20037;-64
2021/03/24 02:04:23;;;;;;;22.95;12.05;;;6.40;99.90;;;;;;4993223;28;20022;-64
2021/03/24 02:07:28;;;;;;;23.52;11.50;;;6.40;99.90;;;;;;4997574;28;20036;-64
2021/03/24 02:10:29;;;;;;;19.67;10.88;;;6.40;99.90;;;;;;4995637;28;20088;-64
2021/03/24 02:13:03;;;;;;;20.00;10.38;;;6.30;99.90;;;;;;4982135;28;20037;-64
2021/03/24 02:15:33;;;;;;;29.17;12.32;;;6.40;99.90;;;;;;4997184;28;20039;-64
2021/03/24 02:18:02;;;;;;;22.90;11.43;;;6.50;99.90;;;;;;4995833;28;20042;-64
2021/03/24 02:20:33;;;;;;;24.88;11.93;;;6.60;99.90;;;;;;4998183;28;20111;-64
2021/03/24 02:23:14;;;;;;;24.10;11.77;;;6.50;99.90;;;;;;4996871;28;20136;-64
2021/03/24 02:25:45;;;;;;;28.27;12.77;;;6.40;99.90;;;;;;4997947;28;20079;-64
2021/03/24 02:28:13;;;;;;;24.17;13.00;;;6.50;99.90;;;;;;4988601;28;20041;-63
2021/03/24 02:30:43;;;;;;;22.65;10.75;;;6.50;99.90;;;;;;4997552;28;20030;-64
2021/03/24 02:33:22;;;;;;;25.38;11.90;;;6.50;99.90;;;;;;4980016;28;20041;-63
2021/03/24 02:35:52;;;;;;;23.38;12.60;;;6.50;99.90;;;;;;4993765;28;20038;-63
2021/03/24 02:38:22;;;;;;;27.23;13.38;;;6.50;99.90;;;;;;4996464;28;20038;-64
2021/03/24 02:40:49;;;;;;;30.33;13.02;;;6.50;99.90;;;;;;4996055;28;20141;-64
2021/03/24 02:43:18;;;;;;;24.80;12.82;;;6.50;99.90;;;;;;4995969;28;20042;-64
2021/03/24 02:45:46;;;;;;;23.15;12.30;;;6.50;99.90;;;;;;4978201;28;20057;-64
2021/03/24 02:48:20;;;;;;;26.35;12.73;;;6.40;99.90;;;;;;4996258;28;20442;-64
2021/03/24 02:50:46;;;;;;;24.73;12.55;;;6.30;99.90;;;;;;4979536;28;20835;-64
2021/03/24 02:53:14;;;;;;;26.95;13.00;;;6.30;99.90;;;;;;4979539;28;20042;-64
2021/03/24 02:55:42;;;;;;;27.90;13.15;;;6.40;99.90;;;;;;5000517;28;20391;-64
2021/03/24 02:58:12;;;;;;;25.75;13.15;;;6.30;99.90;;;;;;5001639;28;20034;-64
2021/03/24 03:00:38;;;;;;;26.92;12.82;;;6.30;99.90;;;;;;4981028;28;20038;-64
2021/03/24 03:03:11;;;;;;;26.65;12.73;;;6.30;99.90;;;;;;5001628;28;20067;-64
2021/03/24 03:05:39;;;;;;;26.35;13.50;;;6.30;99.90;;;;;;4997011;28;20030;-64
2021/03/24 03:08:15;;;;;;;23.65;12.88;;;6.20;99.90;;;;;;5001775;28;20041;-64
2021/03/24 03:10:59;;;;;;;22.48;13.10;;;6.30;99.90;;;;;;4998004;28;20046;-63
2021/03/24 03:13:39;;;;;;;26.65;14.30;;;6.20;99.90;;;;;;4999794;28;20736;-64
2021/03/24 03:16:09;;;;;;;28.52;13.48;;;6.20;99.90;;;;;;5000656;28;20116;-64
2021/03/24 03:18:55;;;;;;;26.02;14.30;;;6.10;99.90;;;;;;5001391;28;20490;-63
2021/03/24 03:21:51;;;;;;;32.00;15.88;;;6.10;99.90;;;;;;4984165;28;20072;-64
2021/03/24 03:24:20;;;;;;;28.95;14.48;;;6.10;99.90;;;;;;4987554;28;20038;-63
2021/03/24 03:26:49;;;;;;;24.20;13.10;;;6.10;99.90;;;;;;5001172;28;20041;-64
2021/03/24 03:29:17;;;;;;;34.45;14.82;;;6.10;99.90;;;;;;4978322;28;20458;-64
2021/03/24 03:31:46;;;;;;;29.05;14.93;;;6.10;99.90;;;;;;5001025;28;20092;-64
2021/03/24 03:34:14;;;;;;;29.80;14.32;;;6.00;99.90;;;;;;5000753;28;20933;-64
2021/03/24 03:36:44;;;;;;;28.10;14.15;;;6.00;99.90;;;;;;5000530;28;20076;-64
2021/03/24 03:39:15;;;;;;;32.10;14.60;;;6.00;99.90;;;;;;4978817;28;20061;-64
2021/03/24 03:41:43;;;;;;;28.77;15.48;;;6.00;99.90;;;;;;5001227;28;20046;-64
2021/03/24 03:44:10;;;;;;;32.45;15.27;;;6.00;99.90;;;;;;5001217;28;20034;-64
2021/03/24 03:46:41;;;;;;;32.80;16.52;;;5.90;99.90;;;;;;5000099;28;20504;-64
2021/03/24 03:49:07;;;;;;;29.65;15.82;;;5.90;99.90;;;;;;4978140;28;20026;-64
2021/03/24 03:52:11;;;;;;;29.83;16.45;;;5.90;99.90;;;;;;5000652;28;20196;-64
2021/03/24 03:54:45;;;;;;;30.15;15.98;;;5.90;99.90;;;;;;4998263;28;20037;-63
2021/03/24 03:57:18;;;;;;;33.83;16.90;;;5.80;99.90;;;;;;5001098;28;20554;-64
2021/03/24 04:00:04;;;;;;;34.00;16.38;;;5.90;99.90;;;;;;4984248;28;20057;-64
2021/03/24 04:02:37;;;;;;;29.77;15.85;;;5.80;99.90;;;;;;4999747;28;20046;-64
2021/03/24 04:05:09;;;;;;;34.53;16.13;;;5.80;99.90;;;;;;4994242;28;20600;-64
2021/03/24 04:07:40;;;;;;;30.33;15.82;;;5.80;99.90;;;;;;4999472;28;20030;-63
2021/03/24 04:10:07;;;;;;;35.17;17.13;;;5.80;99.90;;;;;;4990709;28;20052;-64
2021/03/24 04:12:37;;;;;;;31.88;16.50;;;5.70;99.90;;;;;;5000404;28;20030;-64
2021/03/24 04:15:07;;;;;;;32.95;16.67;;;5.80;99.90;;;;;;5000159;28;20042;-64
2021/03/24 04:17:38;;;;;;;36.92;17.23;;;5.80;99.90;;;;;;5000070;28;20066;-65
2021/03/24 04:20:06;;;;;;;27.08;15.55;;;5.90;99.90;;;;;;5000465;28;20046;-64
2021/03/24 04:22:33;;;;;;;33.13;17.05;;;6.00;99.90;;;;;;4991978;28;20060;-64
2021/03/24 04:25:00;;;;;;;33.33;17.17;;;6.00;99.90;;;;;;4998764;28;20134;-64
2021/03/24 04:27:34;;;;;;;35.17;16.92;;;6.00;99.90;;;;;;4999981;28;20022;-64
2021/03/24 04:30:09;;;;;;;37.95;17.85;;;6.10;99.90;;;;;;5000045;28;20073;-64
2021/03/24 04:32:36;;;;;;;38.08;18.52;;;6.10;99.90;;;;;;4987181;28;20485;-64
2021/03/24 04:35:03;;;;;;;37.10;18.05;;;6.10;99.90;;;;;;4991688;28;20037;-64
2021/03/24 04:37:37;;;;;;;35.30;18.63;;;6.10;99.90;;;;;;5000356;28;20125;-64
2021/03/24 04:40:23;;;;;;;40.63;18.92;;;6.00;99.90;;;;;;4990472;28;20379;-63
2021/03/24 04:42:57;;;;;;;39.03;19.60;;;6.00;99.90;;;;;;4998634;28;20025;-63
2021/03/24 04:45:26;;;;;;;37.95;19.27;;;6.00;99.90;;;;;;4999398;28;20033;-63
2021/03/24 04:47:55;;;;;;;39.03;21.00;;;6.00;99.90;;;;;;5000128;28;20453;-64
2021/03/24 04:50:26;;;;;;;41.92;19.45;;;6.00;99.90;;;;;;5000112;28;20053;-64
2021/03/24 04:52:54;;;;;;;36.25;19.27;;;6.00;99.90;;;;;;5000138;28;20449;-64
2021/03/24 04:55:24;;;;;;;38.95;19.05;;;6.00;99.90;;;;;;4999234;28;20038;-64
2021/03/24 04:57:53;;;;;;;39.75;20.35;;;6.20;99.90;;;;;;4999391;28;20173;-64
2021/03/24 05:00:22;;;;;;;44.13;21.35;;;6.20;99.90;;;;;;4996771;28;20037;-64
2021/03/24 05:02:54;;;;;;;44.45;22.92;;;6.20;99.90;;;;;;4981199;28;20036;-64
2021/03/24 05:05:29;;;;;;;48.90;24.30;;;6.20;99.90;;;;;;4996055;28;20437;-64
2021/03/24 05:08:00;;;;;;;53.20;26.88;;;6.10;99.90;;;;;;4998631;28;20065;-64
2021/03/24 05:10:30;;;;;;;55.85;27.40;;;6.10;99.90;;;;;;4999352;28;20549;-64
2021/03/24 05:13:06;;;;;;;56.03;27.83;;;6.30;99.90;;;;;;4998582;28;20037;-64
2021/03/24 05:15:37;;;;;;;59.45;30.08;;;6.30;99.90;;;;;;4998179;28;20061;-64
2021/03/24 05:18:05;;;;;;;60.25;29.88;;;6.40;99.90;;;;;;4980859;28;20856;-64
2021/03/24 05:20:47;;;;;;;58.53;29.00;;;6.30;99.90;;;;;;4981164;28;20038;-64
2021/03/24 05:23:19;;;;;;;64.85;31.33;;;6.20;99.90;;;;;;4998076;28;20038;-64
2021/03/24 05:25:52;;;;;;;65.32;32.40;;;6.30;99.90;;;;;;4999119;28;20037;-64
2021/03/24 05:28:42;;;;;;;74.05;34.17;;;6.40;99.90;;;;;;4998970;28;20030;-64
2021/03/24 05:31:21;;;;;;;72.57;35.22;;;6.40;99.90;;;;;;4998043;28;20038;-63
2021/03/24 05:33:51;;;;;;;72.10;36.08;;;6.60;99.90;;;;;;4998332;28;20026;-62
2021/03/24 05:36:52;;;;;;;73.18;36.65;;;6.60;99.90;;;;;;4998556;28;20029;-62
2021/03/24 05:39:21;;;;;;;77.43;36.67;;;6.70;99.90;;;;;;4946722;28;20135;-64
2021/03/24 05:42:05;;;;;;;77.97;38.20;;;6.70;99.90;;;;;;4976602;28;20514;-62
2021/03/24 05:44:55;;;;;;;79.97;37.22;;;6.80;99.90;;;;;;4996186;28;20033;-62
2021/03/24 05:47:49;;;;;;;91.18;40.53;;;6.70;99.90;;;;;;4997435;28;20112;-62
2021/03/24 05:50:33;;;;;;;80.07;38.22;;;6.80;99.90;;;;;;4996288;28;20051;-62
2021/03/24 05:53:23;;;;;;;77.45;37.80;;;6.80;99.90;;;;;;4995386;28;20022;-62
2021/03/24 05:56:14;;;;;;;80.38;39.65;;;6.90;99.90;;;;;;4995131;28;20092;-62
2021/03/24 05:59:10;;;;;;;78.57;37.17;;;6.90;99.90;;;;;;4963919;28;20046;-63
2021/03/24 06:02:01;;;;;;;91.18;40.78;;;7.00;99.90;;;;;;4976590;28;20046;-62
2021/03/24 06:04:34;;;;;;;89.53;43.92;;;7.00;99.90;;;;;;4977859;28;20762;-63
2021/03/24 06:07:09;;;;;;;84.15;40.53;;;7.10;99.90;;;;;;4977057;28;20112;-63
2021/03/24 06:10:01;;;;;;;81.67;39.10;;;7.10;99.90;;;;;;4960183;28;20034;-64
2021/03/24 06:12:48;;;;;;;87.93;41.13;;;7.20;99.90;;;;;;4974825;28;20038;-63
2021/03/24 06:15:36;;;;;;;83.45;40.15;;;7.20;99.90;;;;;;4957229;28;20038;-63
2021/03/24 06:18:26;;;;;;;86.30;39.28;;;7.20;99.90;;;;;;4974085;28;20046;-63
2021/03/24 06:21:11;;;;;;;82.65;39.92;;;7.10;99.90;;;;;;4976887;28;20049;-63
2021/03/24 06:24:10;;;;;;;82.00;39.67;;;7.20;99.90;;;;;;4959068;28;20061;-63
2021/03/24 06:27:09;;;;;;;93.63;41.33;;;7.20;99.90;;;;;;4975627;28;20030;-63
2021/03/24 06:29:58;;;;;;;89.13;41.05;;;7.30;99.90;;;;;;4973035;28;20035;-63
2021/03/24 06:33:01;;;;;;;87.88;42.65;;;7.30;99.90;;;;;;4974770;28;20041;-63
2021/03/24 06:36:15;;;;;;;88.60;41.15;;;7.20;99.90;;;;;;4973435;28;20050;-70
2021/03/24 06:38:53;;;;;;;88.68;42.65;;;7.30;99.90;;;;;;4957925;28;20076;-63
2021/03/24 06:41:41;;;;;;;84.10;41.30;;;7.40;99.90;;;;;;4960660;28;20049;-64
2021/03/24 06:44:22;;;;;;;83.40;40.03;;;7.40;99.90;;;;;;4976551;28;20553;-64
2021/03/24 06:47:21;;;;;;;100.70;45.22;;;7.40;99.90;;;;;;4977698;28;20030;-63
2021/03/24 06:50:05;;;;;;;91.18;41.15;;;7.40;99.90;;;;;;4976238;28;20126;-64
2021/03/24 06:53:01;;;;;;;88.57;40.88;;;7.50;99.90;;;;;;4977609;28;20073;-65
2021/03/24 06:55:49;;;;;;;88.18;41.92;;;7.60;99.90;;;;;;4977180;28;20038;-65
2021/03/24 06:58:52;;;;;;;83.82;40.45;;;7.60;99.90;;;;;;4939593;28;20569;-64
2021/03/24 07:01:37;;;;;;;87.13;40.05;;;7.70;99.90;;;;;;4973014;28;20129;-63
2021/03/24 07:04:29;;;;;;;92.07;40.72;;;7.70;99.90;;;;;;4975316;28;20041;-63
2021/03/24 07:07:22;;;;;;;89.88;43.72;;;7.80;99.90;;;;;;4973503;28;20100;-64
2021/03/24 07:09:55;;;;;;;86.75;40.72;;;7.80;99.90;;;;;;4976009;28;20046;-64
2021/03/24 07:12:51;;;;;;;85.60;41.33;;;7.90;99.90;;;;;;4974530;28;20129;-64
2021/03/24 07:15:38;;;;;;;93.63;42.15;;;7.90;99.90;;;;;;4976274;28;20085;-65
2021/03/24 07:18:20;;;;;;;95.55;43.42;;;8.00;99.90;;;;;;4976000;28;20045;-65
2021/03/24 07:21:06;;;;;;;88.32;40.47;;;8.00;99.90;;;;;;4956462;28;20034;-65
2021/03/24 07:24:01;;;;;;;88.90;40.80;;;8.00;99.90;;;;;;4974514;28;20034;-65
2021/03/24 07:26:46;;;;;;;89.18;42.30;;;8.10;99.90;;;;;;4975579;28;20081;-65
2021/03/24 07:29:21;;;;;;;88.78;41.72;;;8.10;99.90;;;;;;4977782;28;20034;-65
2021/03/24 07:32:18;;;;;;;90.45;40.70;;;8.20;99.90;;;;;;4974290;28;20034;-65
2021/03/24 07:34:52;;;;;;;;;;;8.10;99.90;;;;;;4977682;28;20046;-65
2021/03/24 07:37:39;;;;;;;89.07;40.92;;;8.30;99.90;;;;;;4977482;28;19918;-65
2021/03/24 07:40:23;;;;;;;94.47;42.83;;;8.30;99.90;;;;;;4976721;28;20045;-65
2021/03/24 07:43:15;;;;;;;95.00;44.30;;;8.40;99.90;;;;;;4979716;28;20042;-65
2021/03/24 07:45:59;;;;;;;95.53;43.00;;;8.50;99.90;;;;;;4980206;28;20038;-65
2021/03/24 07:48:53;;;;;;;93.20;43.65;;;8.50;99.90;;;;;;4977398;28;20066;-65
2021/03/24 07:51:45;;;;;;;91.07;43.63;;;8.60;99.90;;;;;;4978414;28;20569;-65
2021/03/24 07:54:28;;;;;;;101.32;44.40;;;8.80;99.90;;;;;;4980106;28;20081;-66
2021/03/24 07:57:17;;;;;;;106.38;44.63;;;8.80;99.90;;;;;;4981018;28;20333;-64
2021/03/24 08:00:26;;;;;;;98.22;44.85;;;8.90;99.90;;;;;;4913590;28;20042;-65
2021/03/24 08:02:56;;;;;;;100.85;44.47;;;9.00;99.90;;;;;;4980399;28;20489;-65
2021/03/24 08:05:43;;;;;;;98.00;44.90;;;9.00;99.90;;;;;;4979712;28;20038;-65
2021/03/24 08:08:30;;;;;;;98.00;42.88;;;9.10;99.90;;;;;;4979260;28;20038;-65
2021/03/24 08:11:29;;;;;;;100.68;42.13;;;9.20;99.90;;;;;;4979492;28;20541;-64
2021/03/24 08:14:04;;;;;;;99.20;44.35;;;9.10;99.90;;;;;;4977759;28;20510;-65
2021/03/24 08:16:47;;;;;;;95.65;43.03;;;9.20;99.90;;;;;;4980055;28;20579;-65
2021/03/24 08:19:31;;;;;;;104.45;44.42;;;9.30;99.90;;;;;;4980145;28;20514;-65
2021/03/24 08:22:24;;;;;;;93.30;43.08;;;9.40;99.90;;;;;;4979840;28;20656;-65
2021/03/24 08:25:08;;;;;;;95.80;44.08;;;9.60;99.90;;;;;;4959711;28;20038;-65
2021/03/24 08:27:47;;;;;;;99.57;43.72;;;9.70;99.90;;;;;;4977543;28;20030;-65
2021/03/24 08:30:43;;;;;;;101.57;43.08;;;9.90;99.90;;;;;;4980161;28;20026;-65
2021/03/24 08:33:47;;;;;;;89.35;42.20;;;10.10;99.90;;;;;;4962453;28;20062;-64
2021/03/24 08:36:29;;;;;;;98.18;44.40;;;10.20;99.90;;;;;;4930794;28;20188;-64
2021/03/24 08:39:26;;;;;;;96.53;43.78;;;10.20;99.90;;;;;;4974906;28;20041;-65
2021/03/24 08:42:06;;;;;;;94.40;43.47;;;10.30;99.90;;;;;;4979108;28;20030;-65
2021/03/24 08:44:59;;;;;;;98.22;43.65;;;10.20;99.90;;;;;;4961969;28;20030;-65
2021/03/24 08:47:33;;;;;;;98.53;43.95;;;10.30;99.90;;;;;;4958907;28;20886;-65
2021/03/24 08:50:01;;;;;;;91.75;43.13;;;10.20;99.90;;;;;;4979524;28;20031;-65
2021/03/24 08:52:53;;;;;;;95.20;43.55;;;10.40;99.90;;;;;;4961278;28;20574;-65
2021/03/24 08:55:50;;;;;;;96.65;43.47;;;10.40;99.90;;;;;;4977822;28;20030;-65
2021/03/24 08:58:21;;;;;;;102.55;44.90;;;10.60;99.90;;;;;;4957862;28;20045;-65
2021/03/24 09:01:15;;;;;;;91.10;43.03;;;10.70;99.90;;;;;;4979620;28;20064;-65
2021/03/24 09:04:26;;;;;;;98.55;44.45;;;10.70;99.90;;;;;;4974289;28;20069;-65
2021/03/24 09:07:08;;;;;;;94.72;41.97;;;10.90;99.90;;;;;;4975916;28;20042;-65
2021/03/24 09:10:01;;;;;;;96.88;42.60;;;10.90;99.90;;;;;;4975711;28;20038;-65
2021/03/24 09:12:38;;;;;;;95.90;44.45;;;11.10;99.90;;;;;;4975602;28;20054;-65
2021/03/24 09:15:28;;;;;;;90.85;43.67;;;11.20;99.90;;;;;;4938701;28;20096;-65
2021/03/24 09:18:20;;;;;;;92.13;43.95;;;11.10;99.90;;;;;;4962037;28;20517;-65
2021/03/24 09:21:00;;;;;;;97.18;45.30;;;10.90;99.90;;;;;;4976133;28;20034;-65
2021/03/24 09:24:03;;;;;;;93.07;43.17;;;11.00;99.90;;;;;;4961502;28;20129;-65
2021/03/24 09:26:35;;;;;;;102.95;43.70;;;10.90;99.90;;;;;;4958532;28;20082;-65
2021/03/24 09:29:25;;;;;;;94.63;44.28;;;11.00;99.90;;;;;;4960174;28;20034;-65
2021/03/24 09:32:23;;;;;;;98.10;43.00;;;11.20;99.90;;;;;;4975508;28;20373;-65
2021/03/24 09:35:21;;;;;;;92.65;43.42;;;11.30;99.90;;;;;;4977344;28;20034;-65
2021/03/24 09:38:09;;;;;;;94.55;43.45;;;11.20;99.90;;;;;;4975425;28;20034;-64
2021/03/24 09:40:46;;;;;;;92.47;42.80;;;11.40;99.90;;;;;;4977766;28;20054;-64
2021/03/24 09:43:22;;;;;;;88.85;42.33;;;11.40;99.90;;;;;;4976570;28;20053;-65
2021/03/24 09:46:15;;;;;;;85.10;41.60;;;11.50;99.90;;;;;;4976952;28;20056;-65
2021/03/24 09:48:54;;;;;;;90.32;42.30;;;11.50;99.90;;;;;;4975301;28;20118;-65
2021/03/24 09:51:24;;;;;;;81.07;39.97;;;11.70;99.90;;;;;;4974956;28;20116;-65
2021/03/24 09:53:50;;;;;;;82.22;40.45;;;11.80;99.90;;;;;;4956823;28;20043;-65
2021/03/24 09:56:20;;;;;;;77.25;39.78;;;11.80;99.80;;;;;;4959824;28;20049;-65
2021/03/24 09:59:14;;;;;;;80.07;40.20;;;11.70;99.90;;;;;;4976636;28;20034;-65
2021/03/24 10:01:49;;;;;;;89.57;41.45;;;11.80;99.80;;;;;;4977778;28;20035;-65
2021/03/24 10:04:45;;;;;;;80.13;38.27;;;11.90;99.90;;;;;;4975527;28;20064;-65
2021/03/24 10:07:23;;;;;;;81.40;39.28;;;11.90;99.90;;;;;;4978794;28;20130;-65
2021/03/24 10:09:56;;;;;;;72.32;38.40;;;12.30;99.30;;;;;;4977616;28;20030;-65
2021/03/24 10:12:22;;;;;;;70.13;35.50;;;12.30;97.80;;;;;;4975890;28;20041;-64
2021/03/24 10:15:25;;;;;;;74.55;36.28;;;12.30;97.70;;;;;;4976390;28;20035;-65
2021/03/24 10:18:06;;;;;;;72.97;35.97;;;12.30;98.60;;;;;;4976592;28;20053;-65
2021/03/24 10:20:51;;;;;;;70.40;37.55;;;12.30;98.00;;;;;;4963819;28;20665;-65
2021/03/24 10:23:47;;;;;;;73.88;37.28;;;12.20;98.10;;;;;;4958658;28;20031;-65
2021/03/24 10:26:27;;;;;;;74.70;39.03;;;12.20;98.40;;;;;;4958795;28;20038;-64
2021/03/24 10:29:28;;;;;;;81.22;39.63;;;12.30;98.60;;;;;;4952389;28;20065;-64
2021/03/24 10:32:03;;;;;;;80.63;41.40;;;12.30;98.60;;;;;;4967028;28;20058;-64
2021/03/24 10:34:36;;;;;;;77.35;39.47;;;12.30;98.90;;;;;;4974685;28;20049;-64
2021/03/24 10:37:44;;;;;;;75.03;39.13;;;12.50;99.50;;;;;;4976808;28;20037;-64
2021/03/24 10:40:22;;;;;;;78.60;37.40;;;12.70;98.30;;;;;;4976237;28;20038;-64
2021/03/24 10:43:05;;;;;;;76.72;38.30;;;12.80;97.20;;;;;;4977110;28;20148;-64
2021/03/24 10:45:36;;;;;;;70.75;36.00;;;12.70;97.80;;;;;;4975760;28;20023;-64
2021/03/24 10:48:17;;;;;;;61.80;32.13;;;12.90;96.50;;;;;;4977123;28;20042;-65
2021/03/24 10:51:12;;;;;;;55.80;27.83;;;13.50;94.10;;;;;;4974381;28;20034;-64
2021/03/24 10:53:38;;;;;;;54.97;28.40;;;13.90;90.60;;;;;;4959387;28;20037;-64
2021/03/24 10:56:30;;;;;;;62.03;29.63;;;13.90;90.10;;;;;;4977855;28;20916;-65
2021/03/24 10:59:33;;;;;;;59.13;29.35;;;13.90;91.40;;;;;;4976635;28;20045;-65
2021/03/24 11:02:19;;;;;;;58.42;29.65;;;13.90;90.60;;;;;;4976337;28;20042;-64
2021/03/24 11:05:04;;;;;;;57.58;29.50;;;13.80;90.70;;;;;;4978920;28;20077;-64
2021/03/24 11:07:56;;;;;;;57.08;30.13;;;13.90;91.10;;;;;;4974981;28;20034;-64
2021/03/24 11:10:46;;;;;;;54.97;26.73;;;14.10;90.00;;;;;;4961402;28;20041;-64
2021/03/24 11:13:20;;;;;;;52.55;27.10;;;14.10;86.70;;;;;;4964641;28;20038;-64
2021/03/24 11:16:07;;;;;;;51.30;26.67;;;13.90;86.00;;;;;;4978701;28;20077;-65
2021/03/24 11:18:39;;;;;;;52.13;28.42;;;13.80;90.20;;;;;;4979740;28;20034;-65
2021/03/24 11:21:29;;;;;;;57.38;30.15;;;13.90;90.00;;;;;;4979600;28;20034;-65
2021/03/24 11:24:06;;;;;;;54.35;29.63;;;14.00;89.40;;;;;;4975209;28;20038;-64
2021/03/24 11:27:03;;;;;;;50.20;28.98;;;14.10;88.70;;;;;;4975475;28;20165;-65
2021/03/24 11:29:31;;;;;;;60.17;30.60;;;13.90;88.10;;;;;;4980004;28;20030;-65
2021/03/24 11:32:14;;;;;;;58.97;31.00;;;14.20;90.80;;;;;;4980801;28;20026;-65
2021/03/24 11:34:52;;;;;;;54.80;29.48;;;14.40;89.10;;;;;;4975344;28;20096;-65
2021/03/24 11:37:36;;;;;;;59.05;30.77;;;14.50;87.00;;;;;;4981122;28;20330;-65
2021/03/24 11:40:20;;;;;;;59.15;30.80;;;14.50;88.80;;;;;;4980945;28;20031;-65
2021/03/24 11:42:59;;;;;;;59.58;31.83;;;14.40;88.60;;;;;;4977704;28;20471;-65
2021/03/24 11:45:27;;;;;;;57.47;30.83;;;14.40;88.80;;;;;;4980074;28;20046;-65
2021/03/24 11:48:31;;;;;;;52.00;29.55;;;14.70;87.40;;;;;;4981168;28;20517;-66
2021/03/24 11:51:02;;;;;;;51.75;29.92;;;15.30;82.40;;;;;;4978691;28;20042;-65
2021/03/24 11:53:44;;;;;;;54.20;30.50;;;15.60;78.40;;;;;;4981883;28;20149;-65
2021/03/24 11:56:45;;;;;;;55.40;30.13;;;15.50;78.30;;;;;;4980216;28;20491;-66
2021/03/24 11:59:26;;;;;;;56.30;31.73;;;15.70;78.60;;;;;;4977346;28;20046;-65
2021/03/24 12:01:51;;;;;;;53.75;30.95;;;16.20;77.10;;;;;;4977635;28;20109;-66
2021/03/24 12:04:35;;;;;;;57.35;31.70;;;16.10;74.30;;;;;;4980940;28;20444;-66
2021/03/24 12:07:43;;;;;;;61.45;30.60;;;15.40;76.90;;;;;;4978352;28;20045;-65
2021/03/24 12:10:12;;;;;;;53.50;29.10;;;15.60;77.10;;;;;;4938518;28;20109;-65
2021/03/24 12:12:38;;;;;;;54.00;29.50;;;15.80;76.00;;;;;;4963062;28;20505;-65
2021/03/24 12:15:25;;;;;;;53.25;29.00;;;16.20;73.60;;;;;;4980626;28;20767;-65
2021/03/24 12:17:51;;;;;;;53.45;29.33;;;16.70;70.40;;;;;;4976580;28;20038;-65
2021/03/24 12:20:19;;;;;;;50.80;28.98;;;16.10;71.10;;;;;;4962305;28;20429;-65
2021/03/24 12:22:54;;;;;;;50.40;27.95;;;15.70;74.60;;;;;;4946862;28;20527;-66
2021/03/24 12:25:21;;;;;;;;;;;15.80;74.30;;;;;;4979899;28;20034;-66
2021/03/24 12:27:51;;;;;;;53.72;27.60;;;16.10;73.20;;;;;;4961986;28;20186;-66
2021/03/24 12:30:17;;;;;;;57.53;31.40;;;16.00;72.60;;;;;;4962541;28;20026;-65
2021/03/24 12:32:43;;;;;;;52.65;29.48;;;15.80;74.40;;;;;;4962865;28;20093;-66
2021/03/24 12:35:27;;;;;;;51.63;28.85;;;15.90;74.60;;;;;;4966146;28;20121;-66
2021/03/24 12:38:19;;;;;;;57.95;29.40;;;16.20;73.20;;;;;;4977397;28;20125;-66
2021/03/24 12:40:56;;;;;;;51.22;29.13;;;16.90;70.50;;;;;;4978624;28;20117;-66
2021/03/24 12:43:38;;;;;;;52.22;28.40;;;17.70;67.50;;;;;;4963697;28;20096;-66
2021/03/24 12:46:19;;;;;;;54.40;30.15;;;18.00;64.10;;;;;;4967334;28;20052;-65
2021/03/24 12:48:50;;;;;;;57.25;29.85;;;18.10;64.50;;;;;;4976566;28;20041;-65
2021/03/24 12:51:43;;;;;;;56.40;31.25;;;18.60;62.00;;;;;;4976461;28;20045;-66
2021/03/24 12:54:11;;;;;;;72.10;47.35;;;18.70;60.90;;;;;;4979108;28;20736;-66
2021/03/24 12:56:52;;;;;;;60.67;34.42;;;18.60;61.00;;;;;;4960397;28;20038;-65
2021/03/24 12:59:34;;;;;;;60.28;34.08;;;17.40;62.30;;;;;;4979250;28;20030;-65
2021/03/24 13:02:37;;;;;;;65.75;35.05;;;16.70;65.20;;;;;;4978515;28;20662;-65
2021/03/24 13:05:21;;;;;;;60.78;35.33;;;16.20;67.00;;;;;;4977529;28;20306;-66
2021/03/24 13:08:08;;;;;;;57.50;32.92;;;16.50;67.20;;;;;;4978993;28;20030;-65
2021/03/24 13:10:45;;;;;;;63.53;35.53;;;17.10;65.90;;;;;;4976290;28;20026;-66
2021/03/24 13:13:45;;;;;;;64.53;35.15;;;17.60;64.50;;;;;;4978769;28;20045;-66
2021/03/24 13:16:21;;;;;;;60.15;32.92;;;17.20;63.60;;;;;;4978497;28;20065;-65
2021/03/24 13:19:10;;;;;;;65.25;33.33;;;17.00;65.50;;;;;;4961589;28;20049;-66
2021/03/24 13:21:47;;;;;;;61.47;33.53;;;17.10;65.30;;;;;;4955577;28;20054;-66
2021/03/24 13:24:26;;;;;;;59.95;32.78;;;17.20;64.70;;;;;;4977154;28;20030;-66
2021/03/24 13:26:57;;;;;;;57.55;33.88;;;17.30;65.80;;;;;;4976412;28;20026;-66
2021/03/24 13:29:46;;;;;;;65.53;35.50;;;17.80;64.50;;;;;;4963635;28;20049;-66
2021/03/24 13:32:30;;;;;;;72.47;40.88;;;18.40;61.30;;;;;;4968692;28;20764;-66
2021/03/24 13:35:20;;;;;;;51.20;29.98;;;18.50;60.80;;;;;;4963885;28;20526;-66